sensor_id;sensor_type;location;lat;lon;timestamp;temperature;humidity
5415;DHT22;2730;51.512;7.504;2022-11-20T06:01:18;0.30;99.90
5415;DHT22;2730;51.512;7.504;2022-11-20T06:03:46;0.20;99.90
5415;DHT22;2730;51.512;7.504;2022-11-20T06:06:13;0.20;99.90
5415;DHT22;2730;51.512;7.504;2022-11-20T06:08:41;0.10;99.90
5415;DHT22;2730;51.512;7.504;2022-11-20T06:11:09;0.10;99.90
5415;DHT22;2730;51.512;7.504;2022-11-20T06:13:36;0.00;99.90
5415;DHT22;2730;51.512;7.504;2022-11-20T06:16:03;-0.10;99.90
5415;DHT22;2730;51.512;7.504;2022-11-20T06:18:32;-0.10;99.90
5415;DHT22;2730;51.512;7.504;2022-11-20T06:21:00;-0.20;99.90
5415;DHT22;2730;51.512;7.504;2022-11-20T06:23:28;-0.20;99.90
5415;DHT22;2730;51.512;7.504;2022-11-20T06:25:55;-0.20;99.90
5415;DHT22;2730;51.512;7.504;2022-11-20T06:28:22;-0.30;99.90
5415;DHT22;2730;51.512;7.504;2022-11-20T06:30:49;-0.30;99.90
5415;DHT22;2730;51.512;7.504;2022-11-20T06:33:15;-0.40;99.90
5415;DHT22;2730;51.512;7.504;2022-11-20T06:35:43;-0.30;99.90
5415;DHT22;2730;51.512;7.504;2022-11-20T06:38:10;-0.40;99.90
5415;DHT22;2730;51.512;7.504;2022-11-20T06:40:40;-0.40;99.90
5415;DHT22;2730;51.512;7.504;2022-11-20T06:43:06;-0.40;99.90
5415;DHT22;2730;51.512;7.504;2022-11-20T06:45:33;-0.40;99.90
5415;DHT22;2730;51.512;7.504;2022-11-20T06:48:00;-0.50;99.90
5415;DHT22;2730;51.512;7.504;2022-11-20T06:50:27;-0.50;99.90
5415;DHT22;2730;51.512;7.504;2022-11-20T06:52:55;-0.50;99.90
5415;DHT22;2730;51.512;7.504;2022-11-20T06:55:22;-0.50;99.90
5415;DHT22;2730;51.512;7.504;2022-11-20T06:57:48;-0.60;99.90
5415;DHT22;2730;51.512;7.504;2022-11-20T07:00:17;-0.70;99.90
5415;DHT22;2730;51.512;7.504;2022-11-20T07:02:43;-0.80;99.90
5415;DHT22;2730;51.512;7.504;2022-11-20T07:05:10;-0.90;99.90
5415;DHT22;2730;51.512;7.504;2022-11-20T07:07:37;-1.00;99.90
5415;DHT22;2730;51.512;7.504;2022-11-20T07:10:06;-1.00;99.90
5415;DHT22;2730;51.512;7.504;2022-11-20T07:12:33;-1.00;99.90
5415;DHT22;2730;51.512;7.504;2022-11-20T07:15:00;-1.10;99.90
5415;DHT22;2730;51.512;7.504;2022-11-20T07:17:26;-1.10;99.90
5415;DHT22;2730;51.512;7.504;2022-11-20T07:19:53;-1.10;99.90
5415;DHT22;2730;51.512;7.504;2022-11-20T07:22:20;-1.10;99.90
5415;DHT22;2730;51.512;7.504;2022-11-20T07:24:47;-1.10;99.90
5415;DHT22;2730;51.512;7.504;2022-11-20T07:27:15;-1.10;99.90
5415;DHT22;2730;51.512;7.504;2022-11-20T07:29:42;-1.10;99.90
5415;DHT22;2730;51.512;7.504;2022-11-20T07:32:08;-1.10;99.90
5415;DHT22;2730;51.512;7.504;2022-11-20T07:34:35;-1.10;99.90
5415;DHT22;2730;51.512;7.504;2022-11-20T07:37:02;-1.10;99.90
5415;DHT22;2730;51.512;7.504;2022-11-20T07:39:29;-1.10;99.90
5415;DHT22;2730;51.512;7.504;2022-11-20T07:41:55;-1.10;99.90
5415;DHT22;2730;51.512;7.504;2022-11-20T07:44:24;-1.10;99.90
5415;DHT22;2730;51.512;7.504;2022-11-20T07:46:50;-1.00;99.90
5415;DHT22;2730;51.512;7.504;2022-11-20T07:49:17;-1.00;99.90
5415;DHT22;2730;51.512;7.504;2022-11-20T07:51:44;-0.90;99.90
5415;DHT22;2730;51.512;7.504;2022-11-20T07:54:11;-0.80;99.90
5415;DHT22;2730;51.512;7.504;2022-11-20T07:56:37;-0.70;99.90
5415;DHT22;2730;51.512;7.504;2022-11-20T07:59:04;-0.70;99.90
5415;DHT22;2730;51.512;7.504;2022-11-20T08:01:32;-0.70;99.90
5415;DHT22;2730;51.512;7.504;2022-11-20T08:03:59;-0.70;99.90
5415;DHT22;2730;51.512;7.504;2022-11-20T08:06:26;-0.70;99.90
5415;DHT22;2730;51.512;7.504;2022-11-20T08:08:52;-0.60;99.90
5415;DHT22;2730;51.512;7.504;2022-11-20T08:11:19;-0.50;99.90
5415;DHT22;2730;51.512;7.504;2022-11-20T08:14:03;-0.40;99.90
5415;DHT22;2730;51.512;7.504;2022-11-20T08:16:42;-0.20;99.90
5415;DHT22;2730;51.512;7.504;2022-11-20T08:19:08;0.00;99.90
5415;DHT22;2730;51.512;7.504;2022-11-20T08:21:35;0.20;99.90
5415;DHT22;2730;51.512;7.504;2022-11-20T08:24:02;0.40;99.90
5415;DHT22;2730;51.512;7.504;2022-11-20T08:26:29;0.50;99.90
5415;DHT22;2730;51.512;7.504;2022-11-20T08:28:57;0.50;99.90
5415;DHT22;2730;51.512;7.504;2022-11-20T08:31:26;0.50;99.90
5415;DHT22;2730;51.512;7.504;2022-11-20T08:33:54;0.50;99.90
5415;DHT22;2730;51.512;7.504;2022-11-20T08:36:22;0.40;99.90
5415;DHT22;2730;51.512;7.504;2022-11-20T08:38:50;0.30;99.90
5415;DHT22;2730;51.512;7.504;2022-11-20T08:41:17;0.30;99.90
5415;DHT22;2730;51.512;7.504;2022-11-20T08:43:52;0.40;99.90
5415;DHT22;2730;51.512;7.504;2022-11-20T08:46:20;0.40;99.90
5415;DHT22;2730;51.512;7.504;2022-11-20T08:48:46;0.50;99.90
5415;DHT22;2730;51.512;7.504;2022-11-20T08:51:15;0.50;99.90
5415;DHT22;2730;51.512;7.504;2022-11-20T08:53:42;0.60;99.90
5415;DHT22;2730;51.512;7.504;2022-11-20T08:56:10;0.70;99.90
5415;DHT22;2730;51.512;7.504;2022-11-20T08:58:37;1.00;99.90
5415;DHT22;2730;51.512;7.504;2022-11-20T09:01:04;2.00;99.90
5415;DHT22;2730;51.512;7.504;2022-11-20T09:03:31;3.30;99.90
5415;DHT22;2730;51.512;7.504;2022-11-20T09:05:59;4.50;99.90
5415;DHT22;2730;51.512;7.504;2022-11-20T09:08:28;5.60;99.90
5415;DHT22;2730;51.512;7.504;2022-11-20T09:10:55;6.40;99.90
5415;DHT22;2730;51.512;7.504;2022-11-20T09:13:23;7.10;99.90
5415;DHT22;2730;51.512;7.504;2022-11-20T09:15:53;7.30;99.90
5415;DHT22;2730;51.512;7.504;2022-11-20T09:18:20;7.80;99.90
5415;DHT22;2730;51.512;7.504;2022-11-20T09:20:47;8.00;99.90
5415;DHT22;2730;51.512;7.504;2022-11-20T09:23:14;8.50;99.90
5415;DHT22;2730;51.512;7.504;2022-11-20T09:25:43;8.60;99.90
5415;DHT22;2730;51.512;7.504;2022-11-20T09:28:09;8.60;99.90
5415;DHT22;2730;51.512;7.504;2022-11-20T09:30:36;8.90;99.90
5415;DHT22;2730;51.512;7.504;2022-11-20T09:33:04;8.90;99.90
5415;DHT22;2730;51.512;7.504;2022-11-20T09:35:31;9.10;99.90
5415;DHT22;2730;51.512;7.504;2022-11-20T09:37:58;9.30;99.90
5415;DHT22;2730;51.512;7.504;2022-11-20T09:40:26;9.20;99.90
5415;DHT22;2730;51.512;7.504;2022-11-20T09:42:58;9.30;99.90
5415;DHT22;2730;51.512;7.504;2022-11-20T09:48:21;9.30;99.90
5415;DHT22;2730;51.512;7.504;2022-11-20T09:50:56;9.50;99.90
5415;DHT22;2730;51.512;7.504;2022-11-20T09:53:32;9.30;99.90
5415;DHT22;2730;51.512;7.504;2022-11-20T09:56:03;9.30;99.90
5415;DHT22;2730;51.512;7.504;2022-11-20T09:58:35;9.60;99.90
5415;DHT22;2730;51.512;7.504;2022-11-20T10:01:10;9.70;99.90
5415;DHT22;2730;51.512;7.504;2022-11-20T10:03:45;9.80;99.90
5415;DHT22;2730;51.512;7.504;2022-11-20T10:06:16;9.40;99.90
5415;DHT22;2730;51.512;7.504;2022-11-20T10:08:49;8.70;99.90
5415;DHT22;2730;51.512;7.504;2022-11-20T10:11:21;7.80;99.90
5415;DHT22;2730;51.512;7.504;2022-11-20T10:14:01;7.40;99.90
5415;DHT22;2730;51.512;7.504;2022-11-20T10:16:35;7.80;99.90
5415;DHT22;2730;51.512;7.504;2022-11-20T10:19:14;8.30;99.90
5415;DHT22;2730;51.512;7.504;2022-11-20T10:21:54;8.80;99.90
5415;DHT22;2730;51.512;7.504;2022-11-20T10:24:34;9.10;99.90
5415;DHT22;2730;51.512;7.504;2022-11-20T10:27:09;9.00;99.90
5415;DHT22;2730;51.512;7.504;2022-11-20T10:29:46;8.70;99.90
5415;DHT22;2730;51.512;7.504;2022-11-20T10:32:16;8.50;99.90
5415;DHT22;2730;51.512;7.504;2022-11-20T10:34:48;8.20;99.90
5415;DHT22;2730;51.512;7.504;2022-11-20T10:37:19;7.90;99.90
5415;DHT22;2730;51.512;7.504;2022-11-20T10:39:51;7.60;99.90
5415;DHT22;2730;51.512;7.504;2022-11-20T10:42:28;6.90;99.90
5415;DHT22;2730;51.512;7.504;2022-11-20T10:45:09;6.40;99.90
5415;DHT22;2730;51.512;7.504;2022-11-20T10:47:39;5.90;99.90
5415;DHT22;2730;51.512;7.504;2022-11-20T10:50:11;5.50;99.90
5415;DHT22;2730;51.512;7.504;2022-11-20T10:52:45;5.40;99.90
5415;DHT22;2730;51.512;7.504;2022-11-20T10:55:25;5.50;99.90
5415;DHT22;2730;51.512;7.504;2022-11-20T10:58:02;5.60;99.90
5415;DHT22;2730;51.512;7.504;2022-11-20T11:00:33;5.70;99.90
5415;DHT22;2730;51.512;7.504;2022-11-20T11:03:00;5.60;99.90
5415;DHT22;2730;51.512;7.504;2022-11-20T11:05:36;5.50;99.90
5415;DHT22;2730;51.512;7.504;2022-11-20T11:08:10;5.30;99.90
5415;DHT22;2730;51.512;7.504;2022-11-20T11:10:42;5.20;99.90
5415;DHT22;2730;51.512;7.504;2022-11-20T11:13:20;5.20;99.90
5415;DHT22;2730;51.512;7.504;2022-11-20T11:15:48;5.20;99.90
5415;DHT22;2730;51.512;7.504;2022-11-20T11:18:24;5.20;99.90
5415;DHT22;2730;51.512;7.504;2022-11-20T11:20:52;5.00;99.90
5415;DHT22;2730;51.512;7.504;2022-11-20T11:23:29;4.80;99.90
5415;DHT22;2730;51.512;7.504;2022-11-20T11:25:58;4.70;99.90
5415;DHT22;2730;51.512;7.504;2022-11-20T11:28:26;4.50;99.90
5415;DHT22;2730;51.512;7.504;2022-11-20T11:30:55;4.60;99.90
5415;DHT22;2730;51.512;7.504;2022-11-20T11:33:23;4.60;99.90
5415;DHT22;2730;51.512;7.504;2022-11-20T11:35:53;4.60;99.90
5415;DHT22;2730;51.512;7.504;2022-11-20T11:38:28;4.60;99.90
5415;DHT22;2730;51.512;7.504;2022-11-20T11:40:56;4.60;99.90
5415;DHT22;2730;51.512;7.504;2022-11-20T11:43:25;4.80;99.90
5415;DHT22;2730;51.512;7.504;2022-11-20T11:46:25;4.70;99.90
5415;DHT22;2730;51.512;7.504;2022-11-20T11:48:57;4.70;99.90
5415;DHT22;2730;51.512;7.504;2022-11-20T11:51:28;4.70;99.90
5415;DHT22;2730;51.512;7.504;2022-11-20T11:53:58;4.80;99.90
5415;DHT22;2730;51.512;7.504;2022-11-20T11:56:26;4.90;99.90
5415;DHT22;2730;51.512;7.504;2022-11-20T11:58:57;4.90;99.90
5415;DHT22;2730;51.512;7.504;2022-11-20T12:01:31;4.90;99.90
5415;DHT22;2730;51.512;7.504;2022-11-20T12:04:04;5.00;99.90
5415;DHT22;2730;51.512;7.504;2022-11-20T12:06:32;5.00;99.90
5415;DHT22;2730;51.512;7.504;2022-11-20T12:09:02;5.00;99.90
5415;DHT22;2730;51.512;7.504;2022-11-20T12:11:33;5.00;99.90
5415;DHT22;2730;51.512;7.504;2022-11-20T12:14:10;5.10;99.90
5415;DHT22;2730;51.512;7.504;2022-11-20T12:16:40;5.00;99.90
5415;DHT22;2730;51.512;7.504;2022-11-20T12:19:10;4.90;99.90
5415;DHT22;2730;51.512;7.504;2022-11-20T12:21:46;4.90;99.90
5415;DHT22;2730;51.512;7.504;2022-11-20T12:27:32;5.10;99.90
5415;DHT22;2730;51.512;7.504;2022-11-20T12:30:09;5.30;99.90
5415;DHT22;2730;51.512;7.504;2022-11-20T12:33:07;5.40;99.90
5415;DHT22;2730;51.512;7.504;2022-11-20T12:35:44;5.30;99.90
5415;DHT22;2730;51.512;7.504;2022-11-20T12:38:46;5.20;99.90
5415;DHT22;2730;51.512;7.504;2022-11-20T12:41:24;5.20;99.90
5415;DHT22;2730;51.512;7.504;2022-11-20T12:44:19;5.00;99.90
5415;DHT22;2730;51.512;7.504;2022-11-20T12:47:16;5.10;99.90
5415;DHT22;2730;51.512;7.504;2022-11-20T12:49:52;5.10;99.90
5415;DHT22;2730;51.512;7.504;2022-11-20T12:52:38;5.10;99.90
5415;DHT22;2730;51.512;7.504;2022-11-20T12:55:16;5.30;99.90
5415;DHT22;2730;51.512;7.504;2022-11-20T12:57:50;5.30;99.90
5415;DHT22;2730;51.512;7.504;2022-11-20T13:00:21;5.20;99.90
5415;DHT22;2730;51.512;7.504;2022-11-20T13:03:06;5.20;99.90
5415;DHT22;2730;51.512;7.504;2022-11-20T13:05:51;5.10;99.90
5415;DHT22;2730;51.512;7.504;2022-11-20T13:08:22;5.10;99.90
5415;DHT22;2730;51.512;7.504;2022-11-20T13:10:56;4.90;99.90
5415;DHT22;2730;51.512;7.504;2022-11-20T13:13:32;4.80;99.90
5415;DHT22;2730;51.512;7.504;2022-11-20T13:16:04;4.70;99.90
5415;DHT22;2730;51.512;7.504;2022-11-20T13:18:37;4.70;99.90
5415;DHT22;2730;51.512;7.504;2022-11-20T13:21:15;4.60;99.90
5415;DHT22;2730;51.512;7.504;2022-11-20T13:23:42;4.50;99.90
5415;DHT22;2730;51.512;7.504;2022-11-20T13:26:17;4.40;99.90
5415;DHT22;2730;51.512;7.504;2022-11-20T13:28:46;4.30;99.90
5415;DHT22;2730;51.512;7.504;2022-11-20T13:31:30;4.20;99.90
5415;DHT22;2730;51.512;7.504;2022-11-20T13:33:59;4.30;99.90
5415;DHT22;2730;51.512;7.504;2022-11-20T13:36:28;4.30;99.90
5415;DHT22;2730;51.512;7.504;2022-11-20T13:38:57;4.30;99.90
5415;DHT22;2730;51.512;7.504;2022-11-20T13:41:25;4.40;99.90
5415;DHT22;2730;51.512;7.504;2022-11-20T13:43:59;4.40;99.90
5415;DHT22;2730;51.512;7.504;2022-11-20T13:46:38;4.50;99.90
5415;DHT22;2730;51.512;7.504;2022-11-20T13:49:14;4.40;99.90
5415;DHT22;2730;51.512;7.504;2022-11-20T13:51:46;4.30;99.90
5415;DHT22;2730;51.512;7.504;2022-11-20T13:54:42;4.20;99.90
5415;DHT22;2730;51.512;7.504;2022-11-20T13:57:33;4.30;99.90
5415;DHT22;2730;51.512;7.504;2022-11-20T14:00:11;4.20;99.90
5415;DHT22;2730;51.512;7.504;2022-11-20T14:02:38;4.20;99.90
5415;DHT22;2730;51.512;7.504;2022-11-20T14:05:06;4.20;99.90
5415;DHT22;2730;51.512;7.504;2022-11-20T14:07:42;4.20;99.90
5415;DHT22;2730;51.512;7.504;2022-11-20T14:10:20;4.20;99.90
5415;DHT22;2730;51.512;7.504;2022-11-20T14:12:47;4.20;99.90
5415;DHT22;2730;51.512;7.504;2022-11-20T14:15:24;4.20;99.90
5415;DHT22;2730;51.512;7.504;2022-11-20T14:17:51;4.20;99.90
5415;DHT22;2730;51.512;7.504;2022-11-20T14:20:18;4.10;99.90
5415;DHT22;2730;51.512;7.504;2022-11-20T14:22:50;4.20;99.90
5415;DHT22;2730;51.512;7.504;2022-11-20T14:25:21;4.10;99.90
5415;DHT22;2730;51.512;7.504;2022-11-20T14:27:53;4.10;99.90
5415;DHT22;2730;51.512;7.504;2022-11-20T14:30:23;4.10;99.90
5415;DHT22;2730;51.512;7.504;2022-11-20T14:32:51;4.20;99.90
5415;DHT22;2730;51.512;7.504;2022-11-20T14:35:24;4.10;99.90
5415;DHT22;2730;51.512;7.504;2022-11-20T14:37:54;4.00;99.90
5415;DHT22;2730;51.512;7.504;2022-11-20T14:40:24;4.00;99.90
5415;DHT22;2730;51.512;7.504;2022-11-20T14:42:51;3.90;99.90
5415;DHT22;2730;51.512;7.504;2022-11-20T14:45:19;3.90;99.90
5415;DHT22;2730;51.512;7.504;2022-11-20T14:47:46;4.00;99.90
5415;DHT22;2730;51.512;7.504;2022-11-20T14:50:19;4.00;99.90
5415;DHT22;2730;51.512;7.504;2022-11-20T14:52:54;3.90;99.90
5415;DHT22;2730;51.512;7.504;2022-11-20T14:55:32;3.90;99.90
5415;DHT22;2730;51.512;7.504;2022-11-20T14:58:02;3.90;99.90
5415;DHT22;2730;51.512;7.504;2022-11-20T15:00:30;3.90;99.90
5415;DHT22;2730;51.512;7.504;2022-11-20T15:02:57;3.90;99.90
5415;DHT22;2730;51.512;7.504;2022-11-20T15:05:26;3.90;99.90
5415;DHT22;2730;51.512;7.504;2022-11-20T15:08:12;3.90;99.90
5415;DHT22;2730;51.512;7.504;2022-11-20T15:10:45;4.00;99.90
5415;DHT22;2730;51.512;7.504;2022-11-20T15:13:13;3.90;99.90
5415;DHT22;2730;51.512;7.504;2022-11-20T15:15:45;3.90;99.90
5415;DHT22;2730;51.512;7.504;2022-11-20T15:18:13;4.00;99.90
5415;DHT22;2730;51.512;7.504;2022-11-20T15:20:41;4.00;99.90
5415;DHT22;2730;51.512;7.504;2022-11-20T15:23:12;3.90;99.90
5415;DHT22;2730;51.512;7.504;2022-11-20T15:25:39;3.90;99.90
5415;DHT22;2730;51.512;7.504;2022-11-20T15:28:15;3.90;99.90
5415;DHT22;2730;51.512;7.504;2022-11-20T15:30:43;3.90;99.90
5415;DHT22;2730;51.512;7.504;2022-11-20T15:33:10;3.90;99.90
5415;DHT22;2730;51.512;7.504;2022-11-20T15:35:37;3.80;99.90
5415;DHT22;2730;51.512;7.504;2022-11-20T15:38:03;3.70;99.90
5415;DHT22;2730;51.512;7.504;2022-11-20T15:40:32;3.60;99.90
5415;DHT22;2730;51.512;7.504;2022-11-20T15:42:59;3.60;99.90
5415;DHT22;2730;51.512;7.504;2022-11-20T15:45:36;3.60;99.90
5415;DHT22;2730;51.512;7.504;2022-11-20T15:48:07;3.60;99.90
5415;DHT22;2730;51.512;7.504;2022-11-20T15:50:38;3.60;99.90
5415;DHT22;2730;51.512;7.504;2022-11-20T15:53:05;3.70;99.90
5415;DHT22;2730;51.512;7.504;2022-11-20T15:55:33;3.70;99.90
5415;DHT22;2730;51.512;7.504;2022-11-20T15:58:00;3.70;99.90
5415;DHT22;2730;51.512;7.504;2022-11-20T16:00:27;3.70;99.90
5415;DHT22;2730;51.512;7.504;2022-11-20T16:02:54;3.70;99.90
5415;DHT22;2730;51.512;7.504;2022-11-20T16:05:21;3.60;99.90
5415;DHT22;2730;51.512;7.504;2022-11-20T16:07:50;3.60;99.90
5415;DHT22;2730;51.512;7.504;2022-11-20T16:10:17;3.60;99.90
5415;DHT22;2730;51.512;7.504;2022-11-20T16:12:45;3.50;99.90
5415;DHT22;2730;51.512;7.504;2022-11-20T16:15:30;3.50;99.90
5415;DHT22;2730;51.512;7.504;2022-11-20T16:18:14;3.60;99.90
5415;DHT22;2730;51.512;7.504;2022-11-20T16:20:42;3.60;99.90
5415;DHT22;2730;51.512;7.504;2022-11-20T16:23:09;3.70;99.90
5415;DHT22;2730;51.512;7.504;2022-11-20T16:25:35;3.70;99.90
5415;DHT22;2730;51.512;7.504;2022-11-20T16:28:04;3.60;99.90
5415;DHT22;2730;51.512;7.504;2022-11-20T16:30:31;3.60;99.90
5415;DHT22;2730;51.512;7.504;2022-11-20T16:32:59;3.60;99.90
5415;DHT22;2730;51.512;7.504;2022-11-20T16:35:26;3.50;99.90
5415;DHT22;2730;51.512;7.504;2022-11-20T16:37:53;3.50;99.90
5415;DHT22;2730;51.512;7.504;2022-11-20T16:40:20;3.50;99.90
5415;DHT22;2730;51.512;7.504;2022-11-20T16:42:47;3.60;99.90
5415;DHT22;2730;51.512;7.504;2022-11-20T16:45:15;3.60;99.90
5415;DHT22;2730;51.512;7.504;2022-11-20T16:47:42;3.60;99.90
5415;DHT22;2730;51.512;7.504;2022-11-20T16:50:09;3.60;99.90
5415;DHT22;2730;51.512;7.504;2022-11-20T16:52:36;3.60;99.90
5415;DHT22;2730;51.512;7.504;2022-11-20T16:55:03;3.60;99.90
5415;DHT22;2730;51.512;7.504;2022-11-20T16:57:31;3.70;99.90
5415;DHT22;2730;51.512;7.504;2022-11-20T17:00:00;3.60;99.90
5415;DHT22;2730;51.512;7.504;2022-11-20T17:02:28;3.60;99.90
5415;DHT22;2730;51.512;7.504;2022-11-20T17:04:55;3.70;99.90
5415;DHT22;2730;51.512;7.504;2022-11-20T17:07:21;3.70;99.90
5415;DHT22;2730;51.512;7.504;2022-11-20T17:09:48;3.70;99.90
5415;DHT22;2730;51.512;7.504;2022-11-20T17:12:15;3.70;99.90
5415;DHT22;2730;51.512;7.504;2022-11-20T17:14:42;3.60;99.90
5415;DHT22;2730;51.512;7.504;2022-11-20T17:17:08;3.60;99.90
5415;DHT22;2730;51.512;7.504;2022-11-20T17:19:37;3.60;99.90
5415;DHT22;2730;51.512;7.504;2022-11-20T17:22:03;3.60;99.90
5415;DHT22;2730;51.512;7.504;2022-11-20T17:24:30;3.70;99.90
5415;DHT22;2730;51.512;7.504;2022-11-20T17:26:57;3.70;99.90
5415;DHT22;2730;51.512;7.504;2022-11-20T17:29:24;3.70;99.90
5415;DHT22;2730;51.512;7.504;2022-11-20T17:31:50;3.70;99.90
5415;DHT22;2730;51.512;7.504;2022-11-20T17:34:17;3.70;99.90
5415;DHT22;2730;51.512;7.504;2022-11-20T17:36:46;3.80;99.90
5415;DHT22;2730;51.512;7.504;2022-11-20T17:39:13;3.80;99.90
5415;DHT22;2730;51.512;7.504;2022-11-20T17:41:40;3.80;99.90
5415;DHT22;2730;51.512;7.504;2022-11-20T17:44:09;3.80;99.90
5415;DHT22;2730;51.512;7.504;2022-11-20T17:46:36;3.80;99.90
5415;DHT22;2730;51.512;7.504;2022-11-20T17:49:03;3.80;99.90
5415;DHT22;2730;51.512;7.504;2022-11-20T17:51:31;3.90;99.90
5415;DHT22;2730;51.512;7.504;2022-11-20T17:54:02;3.80;99.90
5415;DHT22;2730;51.512;7.504;2022-11-20T17:56:30;3.90;99.90
5415;DHT22;2730;51.512;7.504;2022-11-20T17:59:15;3.90;99.90
5415;DHT22;2730;51.512;7.504;2022-11-20T18:01:43;3.90;99.90
5415;DHT22;2730;51.512;7.504;2022-11-20T18:04:10;3.90;99.90
5415;DHT22;2730;51.512;7.504;2022-11-20T18:06:38;3.90;99.90
5415;DHT22;2730;51.512;7.504;2022-11-20T18:09:06;4.00;99.90
5415;DHT22;2730;51.512;7.504;2022-11-20T18:11:34;3.90;99.90
5415;DHT22;2730;51.512;7.504;2022-11-20T18:14:03;4.00;99.90
5415;DHT22;2730;51.512;7.504;2022-11-20T18:16:51;4.00;99.90
5415;DHT22;2730;51.512;7.504;2022-11-20T18:19:21;4.00;99.90
5415;DHT22;2730;51.512;7.504;2022-11-20T18:21:48;3.90;99.90
5415;DHT22;2730;51.512;7.504;2022-11-20T18:24:16;3.90;99.90
5415;DHT22;2730;51.512;7.504;2022-11-20T18:26:44;3.80;99.90
5415;DHT22;2730;51.512;7.504;2022-11-20T18:29:11;3.80;99.90
5415;DHT22;2730;51.512;7.504;2022-11-20T18:31:38;3.80;99.90
5415;DHT22;2730;51.512;7.504;2022-11-20T18:34:06;3.90;99.90
5415;DHT22;2730;51.512;7.504;2022-11-20T18:36:36;3.80;99.90
5415;DHT22;2730;51.512;7.504;2022-11-20T18:39:03;3.80;99.90
5415;DHT22;2730;51.512;7.504;2022-11-20T18:41:32;3.90;99.90
5415;DHT22;2730;51.512;7.504;2022-11-20T18:44:18;3.90;99.90
5415;DHT22;2730;51.512;7.504;2022-11-20T18:47:03;4.00;99.90
5415;DHT22;2730;51.512;7.504;2022-11-20T18:49:31;3.90;99.90
5415;DHT22;2730;51.512;7.504;2022-11-20T18:51:58;3.90;99.90
5415;DHT22;2730;51.512;7.504;2022-11-20T18:54:25;4.00;99.90
5415;DHT22;2730;51.512;7.504;2022-11-20T18:56:56;4.00;99.90
5415;DHT22;2730;51.512;7.504;2022-11-20T18:59:24;4.00;99.90
5415;DHT22;2730;51.512;7.504;2022-11-20T19:01:51;4.10;99.90
5415;DHT22;2730;51.512;7.504;2022-11-20T19:04:18;4.20;99.90
5415;DHT22;2730;51.512;7.504;2022-11-20T19:06:47;4.20;99.90
5415;DHT22;2730;51.512;7.504;2022-11-20T19:09:17;4.20;99.90
5415;DHT22;2730;51.512;7.504;2022-11-20T19:11:44;4.20;99.90
5415;DHT22;2730;51.512;7.504;2022-11-20T19:14:12;4.20;99.90
5415;DHT22;2730;51.512;7.504;2022-11-20T19:16:39;4.30;99.90
5415;DHT22;2730;51.512;7.504;2022-11-20T19:19:07;4.20;99.90
5415;DHT22;2730;51.512;7.504;2022-11-20T19:21:35;4.10;99.90
5415;DHT22;2730;51.512;7.504;2022-11-20T19:24:03;4.00;99.90
5415;DHT22;2730;51.512;7.504;2022-11-20T19:26:30;4.00;99.90
5415;DHT22;2730;51.512;7.504;2022-11-20T19:28:57;3.90;99.90
5415;DHT22;2730;51.512;7.504;2022-11-20T19:31:25;3.80;99.90
5415;DHT22;2730;51.512;7.504;2022-11-20T19:33:53;3.80;99.90
5415;DHT22;2730;51.512;7.504;2022-11-20T19:36:22;3.70;99.90
5415;DHT22;2730;51.512;7.504;2022-11-20T19:38:50;3.80;99.90
5415;DHT22;2730;51.512;7.504;2022-11-20T19:41:19;3.70;99.90
5415;DHT22;2730;51.512;7.504;2022-11-20T19:43:46;3.70;99.90
5415;DHT22;2730;51.512;7.504;2022-11-20T19:46:15;3.80;99.90
5415;DHT22;2730;51.512;7.504;2022-11-20T19:48:43;3.80;99.90
5415;DHT22;2730;51.512;7.504;2022-11-20T19:51:11;3.90;99.90
5415;DHT22;2730;51.512;7.504;2022-11-20T19:53:38;3.80;99.90
5415;DHT22;2730;51.512;7.504;2022-11-20T19:56:05;3.80;99.90
5415;DHT22;2730;51.512;7.504;2022-11-20T19:58:33;3.80;99.90
5415;DHT22;2730;51.512;7.504;2022-11-20T20:01:05;3.80;99.90
5415;DHT22;2730;51.512;7.504;2022-11-20T20:03:32;3.70;99.90
5415;DHT22;2730;51.512;7.504;2022-11-20T20:06:01;3.80;99.90
5415;DHT22;2730;51.512;7.504;2022-11-20T20:08:30;3.90;99.90
5415;DHT22;2730;51.512;7.504;2022-11-20T20:10:57;3.80;99.90
5415;DHT22;2730;51.512;7.504;2022-11-20T20:13:24;3.80;99.90
5415;DHT22;2730;51.512;7.504;2022-11-20T20:15:51;3.80;99.90
5415;DHT22;2730;51.512;7.504;2022-11-20T20:18:18;3.90;99.90
5415;DHT22;2730;51.512;7.504;2022-11-20T20:20:45;4.00;99.90
5415;DHT22;2730;51.512;7.504;2022-11-20T20:23:13;4.00;99.90
5415;DHT22;2730;51.512;7.504;2022-11-20T20:25:40;4.10;99.90
5415;DHT22;2730;51.512;7.504;2022-11-20T20:28:07;4.00;99.90
5415;DHT22;2730;51.512;7.504;2022-11-20T20:30:35;4.10;99.90
5415;DHT22;2730;51.512;7.504;2022-11-20T20:33:02;4.10;99.90
5415;DHT22;2730;51.512;7.504;2022-11-20T20:35:29;4.00;99.90
5415;DHT22;2730;51.512;7.504;2022-11-20T20:37:56;4.10;99.90
5415;DHT22;2730;51.512;7.504;2022-11-20T20:40:24;4.10;99.90
5415;DHT22;2730;51.512;7.504;2022-11-20T20:42:51;4.00;99.90
5415;DHT22;2730;51.512;7.504;2022-11-20T20:45:17;4.10;99.90
5415;DHT22;2730;51.512;7.504;2022-11-20T20:47:44;4.00;99.90
5415;DHT22;2730;51.512;7.504;2022-11-20T20:50:11;3.90;99.90
5415;DHT22;2730;51.512;7.504;2022-11-20T20:52:38;3.80;99.90
5415;DHT22;2730;51.512;7.504;2022-11-20T20:55:06;3.80;99.90
5415;DHT22;2730;51.512;7.504;2022-11-20T20:57:34;3.80;99.90
5415;DHT22;2730;51.512;7.504;2022-11-20T21:00:02;3.80;99.90
5415;DHT22;2730;51.512;7.504;2022-11-20T21:02:30;3.80;99.90
5415;DHT22;2730;51.512;7.504;2022-11-20T21:04:57;3.80;99.90
5415;DHT22;2730;51.512;7.504;2022-11-20T21:07:24;3.80;99.90
5415;DHT22;2730;51.512;7.504;2022-11-20T21:09:51;3.80;99.90
5415;DHT22;2730;51.512;7.504;2022-11-20T21:12:18;3.80;99.90
5415;DHT22;2730;51.512;7.504;2022-11-20T21:14:46;3.80;99.90
5415;DHT22;2730;51.512;7.504;2022-11-20T21:17:13;3.80;99.90
5415;DHT22;2730;51.512;7.504;2022-11-20T21:19:40;4.00;99.90
5415;DHT22;2730;51.512;7.504;2022-11-20T21:22:07;4.00;99.90
5415;DHT22;2730;51.512;7.504;2022-11-20T21:24:34;3.90;99.90
5415;DHT22;2730;51.512;7.504;2022-11-20T21:27:02;3.90;99.90
5415;DHT22;2730;51.512;7.504;2022-11-20T21:29:29;3.90;99.90
5415;DHT22;2730;51.512;7.504;2022-11-20T21:31:58;3.80;99.90
5415;DHT22;2730;51.512;7.504;2022-11-20T21:34:24;3.80;99.90
5415;DHT22;2730;51.512;7.504;2022-11-20T21:36:52;3.80;99.90
5415;DHT22;2730;51.512;7.504;2022-11-20T21:39:18;3.70;99.90
5415;DHT22;2730;51.512;7.504;2022-11-20T21:41:47;3.70;99.90
5415;DHT22;2730;51.512;7.504;2022-11-20T21:44:14;3.70;99.90
5415;DHT22;2730;51.512;7.504;2022-11-20T21:46:43;3.70;99.90
5415;DHT22;2730;51.512;7.504;2022-11-20T21:49:12;3.70;99.90
5415;DHT22;2730;51.512;7.504;2022-11-20T21:51:39;3.70;99.90
5415;DHT22;2730;51.512;7.504;2022-11-20T21:54:08;3.60;99.90
5415;DHT22;2730;51.512;7.504;2022-11-20T21:56:35;3.60;99.90
5415;DHT22;2730;51.512;7.504;2022-11-20T21:59:01;3.60;99.90
5415;DHT22;2730;51.512;7.504;2022-11-20T22:01:29;3.60;99.90
5415;DHT22;2730;51.512;7.504;2022-11-20T22:03:57;3.60;99.90
5415;DHT22;2730;51.512;7.504;2022-11-20T22:06:28;3.60;99.90
5415;DHT22;2730;51.512;7.504;2022-11-20T22:08:57;3.60;99.90
5415;DHT22;2730;51.512;7.504;2022-11-20T22:11:23;3.60;99.90
5415;DHT22;2730;51.512;7.504;2022-11-20T22:13:50;3.50;99.90
5415;DHT22;2730;51.512;7.504;2022-11-20T22:16:35;3.40;99.90
5415;DHT22;2730;51.512;7.504;2022-11-20T22:19:03;3.40;99.90
5415;DHT22;2730;51.512;7.504;2022-11-20T22:21:32;3.40;99.90
5415;DHT22;2730;51.512;7.504;2022-11-20T22:23:59;3.40;99.90
5415;DHT22;2730;51.512;7.504;2022-11-20T22:26:28;3.40;99.90
5415;DHT22;2730;51.512;7.504;2022-11-20T22:28:57;3.40;99.90
5415;DHT22;2730;51.512;7.504;2022-11-20T22:31:25;3.40;99.90
5415;DHT22;2730;51.512;7.504;2022-11-20T22:33:52;3.50;99.90
5415;DHT22;2730;51.512;7.504;2022-11-20T22:36:20;3.50;99.90
5415;DHT22;2730;51.512;7.504;2022-11-20T22:38:48;3.50;99.90
5415;DHT22;2730;51.512;7.504;2022-11-20T22:41:16;3.40;99.90